Salem, OR (97303)

2:14 AM PDT on August 30, 2016 (GMT -0700)
Country Glen | | Change Station

Elev 134 ft 45.02 °N, 123.02 °W | Updated 56 seconds ago

Partly Cloudy
Partly Cloudy
52.5 °F
Feels Like 52.5 °F
N
0.0
Wind Variable Wind from South
Gusts 0.0 mph

Today
High -- | Low -- °F
--% Chance of Precip.
Yesterday
High -- | Low -- °F
Precip. -- in
Pressure 30.07 in
Visibility 10.0 miles
Clouds Few 3000 ft
Dew Point 50 °F
Humidity 91%
Rainfall 0.00 in
Snow Depth Not available.
6:32 AM 7:51 PM
Waning Crescent, 4% visible
METAR KSLE 300856Z AUTO 17003KT 10SM FEW030 12/09 A3007 RMK AO2 SLP182 T01220089 51007
Pressure 30.07 in
Visibility 10.0 miles
Clouds Few 3000 ft
Dew Point 50 °F
Humidity 91%
Rainfall 0.00 in
Snow Depth Not available.
6:32 AM 7:51 PM
Waning Crescent, 4% visible
METAR KSLE 300856Z AUTO 17003KT 10SM FEW030 12/09 A3007 RMK AO2 SLP182 T01220089 51007

10-Day Weather Forecast

Almanac

Astronomy

Aug. 30, 2016 Rise Set
Actual Time
Civil Twilight
Nautical Twilight
Astronomical Twilight
Moon
Length of Visible Light
Length of Day
Tomorrow will be .
, % of the Moon is Illuminated

Today's Extremes

State Highs State Lows

Community

WunderPhotos

Upload Photos

1,935,795 photos uploaded!

WunderBlog® & News

Nearby

Air Quality

  Air Quality AQ Index Pollutant
Not available.

Snow Depth

Station Depth Elevation

Earthquake Activity

City Distance Mag. Time & Date
Minimum magnitude displayed is 2.5.

Coastal Water Temperatures

Place Temperature

Stations

Nearby Weather Stations

Station Location Temp. Windchill Dew Point Humidity Wind Precip. Elev Updated Type
                   

Watches & Warnings

There are currently no watches in effect.